createdAt,value
2018-05-11T00:01:23.699Z,14.73
2018-05-11T00:03:51.386Z,15.57
2018-05-11T00:06:19.039Z,12.90
2018-05-11T00:08:47.460Z,12.40
2018-05-11T00:11:15.147Z,11.93
2018-05-11T00:13:42.818Z,12.23
2018-05-11T00:16:10.521Z,11.77
2018-05-11T00:18:39.262Z,11.10
2018-05-11T00:21:06.952Z,11.23
2018-05-11T00:23:35.421Z,13.53
2018-05-11T00:26:03.106Z,14.77
2018-05-11T00:28:30.756Z,10.30
2018-05-11T00:30:59.341Z,10.97
2018-05-11T00:33:27.799Z,10.00
2018-05-11T00:35:55.545Z,10.37
2018-05-11T00:38:23.191Z,11.60
2018-05-11T00:40:50.868Z,9.60
2018-05-11T00:43:18.519Z,9.83
2018-05-11T00:45:46.201Z,10.50
2018-05-11T00:48:13.865Z,9.37
2018-05-11T00:50:41.551Z,10.30
2018-05-11T00:53:10.000Z,10.00
2018-05-11T00:55:49.701Z,10.70
2018-05-11T00:58:18.108Z,10.20
2018-05-11T01:00:45.786Z,9.93
2018-05-11T01:03:13.478Z,13.40
2018-05-11T01:05:41.924Z,11.27
2018-05-11T01:08:10.946Z,9.77
2018-05-11T01:10:40.574Z,11.60
2018-05-11T01:13:09.318Z,10.30
2018-05-11T01:15:37.147Z,9.93
2018-05-11T01:18:04.843Z,9.83
2018-05-11T01:20:32.516Z,9.63
2018-05-11T01:23:00.984Z,10.03
2018-05-11T01:25:28.654Z,10.57
2018-05-11T01:27:56.341Z,9.57
2018-05-11T01:30:24.014Z,9.93
2018-05-11T01:32:51.715Z,10.10
2018-05-11T01:35:19.380Z,14.40
2018-05-11T01:37:47.047Z,10.13
2018-05-11T01:40:14.711Z,9.03
2018-05-11T01:42:42.365Z,10.17
2018-05-11T01:45:10.080Z,10.00
2018-05-11T01:47:38.297Z,9.30
2018-05-11T01:50:06.735Z,9.57
2018-05-11T01:52:34.375Z,9.03
2018-05-11T01:55:02.820Z,10.70
2018-05-11T01:57:30.493Z,11.70
2018-05-11T01:59:58.186Z,10.57
2018-05-11T02:02:26.634Z,10.90
2018-05-11T02:04:54.309Z,9.30
2018-05-11T02:07:21.965Z,9.13
2018-05-11T02:09:49.657Z,11.93
2018-05-11T02:12:17.305Z,10.63
2018-05-11T02:14:45.773Z,11.70
2018-05-11T02:17:14.207Z,9.73
2018-05-11T02:19:41.897Z,9.97
2018-05-11T02:22:10.620Z,10.87
2018-05-11T02:24:39.459Z,10.17
2018-05-11T02:27:07.166Z,10.03
2018-05-11T02:29:35.611Z,14.83
2018-05-11T02:32:03.301Z,12.13
2018-05-11T02:34:31.734Z,10.67
2018-05-11T02:36:59.424Z,9.60
2018-05-11T02:39:27.091Z,15.37
2018-05-11T02:41:54.773Z,9.60
2018-05-11T02:44:23.208Z,9.80
2018-05-11T02:46:50.881Z,8.87
2018-05-11T02:49:18.535Z,9.90
2018-05-11T02:51:46.252Z,12.17
2018-05-11T02:54:13.933Z,11.23
2018-05-11T02:56:41.585Z,12.50
2018-05-11T02:59:10.408Z,13.27
2018-05-11T03:01:39.785Z,12.27
2018-05-11T03:04:07.502Z,13.20
2018-05-11T03:06:35.168Z,12.27
2018-05-11T03:09:03.662Z,12.80
2018-05-11T03:11:31.331Z,12.87
2018-05-11T03:13:59.014Z,14.10
2018-05-11T03:16:26.679Z,15.37
2018-05-11T03:18:54.375Z,13.33
2018-05-11T03:21:22.051Z,16.90
2018-05-11T03:23:49.751Z,15.93
2018-05-11T03:26:17.423Z,19.03
2018-05-11T03:28:45.119Z,18.93
2018-05-11T03:31:12.783Z,18.67
2018-05-11T03:33:40.498Z,22.90
2018-05-11T03:36:09.273Z,16.90
2018-05-11T03:38:36.971Z,18.60
2018-05-11T03:41:04.663Z,25.27
2018-05-11T03:43:32.347Z,20.70
2018-05-11T03:46:00.804Z,18.47
2018-05-11T03:48:28.481Z,22.73
2018-05-11T03:50:56.928Z,28.33
2018-05-11T03:53:24.634Z,20.53
2018-05-11T03:55:53.075Z,23.10
2018-05-11T03:58:20.728Z,18.27
2018-05-11T04:00:48.421Z,24.73
2018-05-11T04:03:28.089Z,22.37
2018-05-11T04:06:03.839Z,20.70
2018-05-11T04:08:48.315Z,20.10
2018-05-11T04:11:15.991Z,28.60
2018-05-11T04:13:44.501Z,19.23
2018-05-11T04:16:12.211Z,21.80
2018-05-11T04:18:39.921Z,22.00
2018-05-11T04:21:08.203Z,21.40
2018-05-11T04:23:35.878Z,20.37
2018-05-11T04:26:04.358Z,20.53
2018-05-11T04:28:32.781Z,28.70
2018-05-11T04:31:00.458Z,22.63
2018-05-11T04:33:28.156Z,19.53
2018-05-11T04:35:55.841Z,24.53
2018-05-11T04:38:24.341Z,19.43
2018-05-11T04:40:52.006Z,22.53
2018-05-11T04:43:19.698Z,26.37
2018-05-11T04:45:47.363Z,30.37
2018-05-11T04:48:15.062Z,27.47
2018-05-11T04:50:43.490Z,25.93
2018-05-11T04:53:11.201Z,27.20
2018-05-11T04:55:40.913Z,26.43
2018-05-11T04:58:10.607Z,21.90
2018-05-11T05:00:38.322Z,25.23
2018-05-11T05:03:05.998Z,24.90
2018-05-11T05:05:33.698Z,24.53
2018-05-11T05:08:02.125Z,20.03
2018-05-11T05:10:29.813Z,26.13
2018-05-11T05:12:57.469Z,21.40
2018-05-11T05:15:25.537Z,22.90
2018-05-11T05:17:54.004Z,23.30
2018-05-11T05:20:21.708Z,21.50
2018-05-11T05:22:49.391Z,25.40
2018-05-11T05:25:17.827Z,21.97
2018-05-11T05:27:45.508Z,24.17
2018-05-11T05:30:13.199Z,20.47
2018-05-11T05:32:40.867Z,21.00
2018-05-11T05:35:09.387Z,23.30
2018-05-11T05:37:37.054Z,24.67
2018-05-11T05:40:04.741Z,23.27
2018-05-11T05:42:32.406Z,23.57
2018-05-11T05:45:00.860Z,23.30
2018-05-11T05:47:28.549Z,25.23
2018-05-11T05:49:57.003Z,20.20
2018-05-11T05:52:24.694Z,24.40
2018-05-11T05:54:53.159Z,20.00
2018-05-11T05:57:20.823Z,21.30
2018-05-11T05:59:48.698Z,20.33
2018-05-11T06:02:16.340Z,19.67
2018-05-11T06:04:44.031Z,20.73
2018-05-11T06:07:11.753Z,18.40
2018-05-11T06:09:40.276Z,21.30
2018-05-11T06:12:09.746Z,21.33
2018-05-11T06:14:39.128Z,24.50
2018-05-11T06:17:06.951Z,25.33
2018-05-11T06:19:35.674Z,25.67
2018-05-11T06:22:03.467Z,22.87
2018-05-11T06:24:31.830Z,19.23
2018-05-11T06:26:59.529Z,21.60
2018-05-11T06:29:27.947Z,18.63
2018-05-11T06:31:55.642Z,23.10
2018-05-11T06:34:32.812Z,21.30
2018-05-11T06:37:10.316Z,21.33
2018-05-11T06:39:39.685Z,18.47
2018-05-11T06:42:07.369Z,25.50
2018-05-11T06:44:35.030Z,17.97
2018-05-11T06:47:02.723Z,18.30
2018-05-11T06:49:30.391Z,18.97
2018-05-11T06:51:58.847Z,26.60
2018-05-11T06:54:26.518Z,18.50
2018-05-11T06:56:54.191Z,15.87
2018-05-11T06:59:21.861Z,16.40
2018-05-11T07:01:50.310Z,19.60
2018-05-11T07:04:17.983Z,19.50
2018-05-11T07:06:45.678Z,16.23
2018-05-11T07:09:13.338Z,17.23
2018-05-11T07:11:41.055Z,14.07
2018-05-11T07:14:09.812Z,13.43
2018-05-11T07:16:37.566Z,21.07
2018-05-11T07:19:05.198Z,12.90
2018-05-11T07:21:33.627Z,15.67
2018-05-11T07:24:01.304Z,15.13
2018-05-11T07:26:28.979Z,17.03
2018-05-11T07:28:57.238Z,17.47
2018-05-11T07:31:24.902Z,14.50
2018-05-11T07:33:52.590Z,13.60
2018-05-11T07:36:21.018Z,15.20
2018-05-11T07:38:48.703Z,12.17
2018-05-11T07:41:16.370Z,12.40
2018-05-11T07:43:44.070Z,12.50
2018-05-11T07:46:12.498Z,11.77
2018-05-11T07:48:40.180Z,10.20
2018-05-11T07:51:08.246Z,11.50
2018-05-11T07:53:35.936Z,11.23
2018-05-11T07:56:04.911Z,11.57
2018-05-11T07:58:32.664Z,11.20
2018-05-11T08:01:00.332Z,11.70
2018-05-11T08:03:28.022Z,11.73
2018-05-11T08:05:56.435Z,11.80
2018-05-11T08:08:24.118Z,10.50
2018-05-11T08:10:51.781Z,11.67
2018-05-11T08:13:19.460Z,12.93
2018-05-11T08:15:47.117Z,17.97
2018-05-11T08:18:14.807Z,15.77
2018-05-11T08:20:43.241Z,13.07
2018-05-11T08:23:10.946Z,9.37
2018-05-11T08:25:40.618Z,14.73
2018-05-11T08:28:08.301Z,11.00
2018-05-11T08:30:35.967Z,10.63
2018-05-11T08:33:03.716Z,11.23
2018-05-11T08:35:31.480Z,10.87
2018-05-11T08:37:59.301Z,13.37
2018-05-11T08:40:26.962Z,11.63
2018-05-11T08:42:54.621Z,16.97
2018-05-11T08:45:22.307Z,11.37
2018-05-11T08:47:49.978Z,12.80
2018-05-11T08:50:17.660Z,10.80
2018-05-11T08:52:45.375Z,13.43
2018-05-11T08:55:13.041Z,10.63
2018-05-11T08:57:40.688Z,11.60
2018-05-11T09:00:09.152Z,11.33
2018-05-11T09:02:38.223Z,9.73
2018-05-11T09:05:06.675Z,11.20
2018-05-11T09:07:34.568Z,12.33
2018-05-11T09:10:03.027Z,11.30
2018-05-11T09:12:30.681Z,14.27
2018-05-11T09:14:58.366Z,9.33
2018-05-11T09:17:26.025Z,11.03
2018-05-11T09:19:53.720Z,11.53
2018-05-11T09:22:21.396Z,9.40
2018-05-11T09:24:49.098Z,11.23
2018-05-11T09:27:16.768Z,12.10
2018-05-11T09:29:44.447Z,14.97
2018-05-11T09:32:12.114Z,16.37
2018-05-11T09:34:40.593Z,12.80
2018-05-11T09:37:09.030Z,12.47
2018-05-11T09:39:36.743Z,11.20
2018-05-11T09:42:05.163Z,11.03
2018-05-11T09:44:32.823Z,12.90
2018-05-11T09:47:00.520Z,16.30
2018-05-11T09:49:28.173Z,10.63
2018-05-11T09:51:55.861Z,9.70
2018-05-11T09:54:24.279Z,13.43
2018-05-11T09:56:51.949Z,9.30
2018-05-11T09:59:19.620Z,10.13
2018-05-11T10:01:47.348Z,11.43
2018-05-11T10:04:15.003Z,10.10
2018-05-11T10:06:42.667Z,9.73
2018-05-11T10:09:10.319Z,10.30
2018-05-11T10:11:39.726Z,9.80
2018-05-11T10:14:09.196Z,10.50
2018-05-11T10:16:36.887Z,10.77
2018-05-11T10:19:05.319Z,10.70
2018-05-11T10:21:33.021Z,19.63
2018-05-11T10:24:00.680Z,11.20
2018-05-11T10:26:29.134Z,13.03
2018-05-11T10:28:57.437Z,11.33
2018-05-11T10:31:25.089Z,11.47
2018-05-11T10:33:52.758Z,12.47
2018-05-11T10:36:21.229Z,11.87
2018-05-11T10:38:48.883Z,13.90
2018-05-11T10:41:16.539Z,11.87
2018-05-11T10:43:44.234Z,13.50
2018-05-11T10:46:12.662Z,10.60
2018-05-11T10:48:40.356Z,10.83
2018-05-11T10:51:09.777Z,10.47
2018-05-11T10:53:39.356Z,14.63
2018-05-11T10:56:07.021Z,12.30
2018-05-11T10:58:34.710Z,10.13
2018-05-11T11:01:03.139Z,8.60
2018-05-11T11:03:30.838Z,11.90
2018-05-11T11:05:59.276Z,10.10
2018-05-11T11:08:26.948Z,9.87
2018-05-11T11:10:54.597Z,10.67
2018-05-11T11:13:22.283Z,10.90
2018-05-11T11:15:49.943Z,11.23
2018-05-11T11:18:17.642Z,14.13
2018-05-11T11:20:45.305Z,11.70
2018-05-11T11:23:12.993Z,11.50
2018-05-11T11:25:40.650Z,11.83
2018-05-11T11:28:09.692Z,10.47
2018-05-11T11:30:37.386Z,12.80
2018-05-11T11:33:05.092Z,10.47
2018-05-11T11:35:32.751Z,10.60
2018-05-11T11:38:00.425Z,8.87
2018-05-11T11:40:28.088Z,10.03
2018-05-11T11:42:55.777Z,9.57
2018-05-11T11:45:24.209Z,10.20
2018-05-11T11:47:51.908Z,10.47
2018-05-11T11:50:20.343Z,9.20
2018-05-11T11:52:48.064Z,9.47
2018-05-11T11:55:16.499Z,9.87
2018-05-11T11:57:44.166Z,9.97
2018-05-11T12:00:11.859Z,9.77
2018-05-11T12:02:40.664Z,10.63
2018-05-11T12:05:09.133Z,17.30
2018-05-11T12:07:38.696Z,11.80
2018-05-11T12:10:06.485Z,12.63
2018-05-11T12:12:34.154Z,11.40
2018-05-11T12:15:02.623Z,11.40
2018-05-11T12:17:30.298Z,10.33
2018-05-11T12:19:58.759Z,11.37
2018-05-11T12:22:26.426Z,10.30
2018-05-11T12:24:54.113Z,9.80
2018-05-11T12:27:22.543Z,9.90
2018-05-11T12:29:50.242Z,11.10
2018-05-11T12:32:17.901Z,10.97
2018-05-11T12:34:45.634Z,14.30
2018-05-11T12:37:13.279Z,10.00
2018-05-11T12:39:40.975Z,11.10
2018-05-11T12:42:09.614Z,10.67
2018-05-11T12:44:39.124Z,11.13
2018-05-11T12:47:08.342Z,11.13
2018-05-11T12:49:36.021Z,11.23
2018-05-11T12:52:03.681Z,12.07
2018-05-11T12:54:31.355Z,10.53
2018-05-11T12:56:59.018Z,9.70
2018-05-11T12:59:26.710Z,10.30
2018-05-11T13:01:54.363Z,9.53
2018-05-11T13:04:22.048Z,9.97
2018-05-11T13:06:49.706Z,10.93
2018-05-11T13:09:17.390Z,10.80
2018-05-11T13:11:45.042Z,10.97
2018-05-11T13:14:12.698Z,10.80
2018-05-11T13:16:40.373Z,11.83
2018-05-11T13:19:09.042Z,11.70
2018-05-11T13:21:36.742Z,11.97
2018-05-11T13:24:04.406Z,11.13
2018-05-11T13:26:32.097Z,11.83
2018-05-11T13:29:00.553Z,10.50
2018-05-11T13:31:28.224Z,10.70
2018-05-11T13:33:55.890Z,12.00
2018-05-11T13:36:24.408Z,10.53
2018-05-11T13:38:52.815Z,9.87
2018-05-11T13:41:20.506Z,10.57
2018-05-11T13:43:48.177Z,11.20
2018-05-11T13:46:16.636Z,10.10
2018-05-11T13:48:44.297Z,10.60
2018-05-11T13:51:11.974Z,12.43
2018-05-11T13:53:40.402Z,10.87
2018-05-11T13:56:09.175Z,10.63
2018-05-11T13:58:38.608Z,10.10
2018-05-11T14:01:06.302Z,9.83
2018-05-11T14:03:33.999Z,8.47
2018-05-11T14:06:02.428Z,10.60
2018-05-11T14:08:30.105Z,11.50
2018-05-11T14:10:57.778Z,9.67
2018-05-11T14:13:26.206Z,10.70
2018-05-11T14:15:53.886Z,9.77
2018-05-11T14:18:21.537Z,9.30
2018-05-11T14:20:49.228Z,8.80
2018-05-11T14:23:16.889Z,9.07
2018-05-11T14:25:44.590Z,8.47
2018-05-11T14:28:12.252Z,11.03
2018-05-11T14:30:40.671Z,8.70
2018-05-11T14:33:08.345Z,9.77
2018-05-11T14:35:36.007Z,8.33
2018-05-11T14:38:03.777Z,9.07
2018-05-11T14:40:31.424Z,8.13
2018-05-11T14:42:59.097Z,8.57
2018-05-11T14:45:26.767Z,8.47
2018-05-11T14:47:55.209Z,8.40
2018-05-11T14:50:22.875Z,10.00
2018-05-11T14:52:50.570Z,8.10
2018-05-11T14:55:18.992Z,8.30
2018-05-11T14:57:46.680Z,8.87
2018-05-11T15:00:14.329Z,8.50
2018-05-11T15:02:42.012Z,10.07
2018-05-11T15:05:11.014Z,8.20
2018-05-11T15:07:39.588Z,8.17
2018-05-11T15:10:07.283Z,8.10
2018-05-11T15:12:35.738Z,8.20
2018-05-11T15:15:03.407Z,8.80
2018-05-11T15:17:31.094Z,7.60
2018-05-11T15:19:58.762Z,8.47
2018-05-11T15:22:26.447Z,8.33
2018-05-11T15:24:54.120Z,8.10
2018-05-11T15:27:21.805Z,8.57
2018-05-11T15:29:49.474Z,8.20
2018-05-11T15:32:17.140Z,9.17
2018-05-11T15:34:44.799Z,9.30
2018-05-11T15:37:12.479Z,10.23
2018-05-11T15:39:40.908Z,8.03
2018-05-11T15:42:09.903Z,8.77
2018-05-11T15:44:38.280Z,9.17
2018-05-11T15:47:05.958Z,9.80
2018-05-11T15:49:33.604Z,10.30
2018-05-11T15:52:01.247Z,9.70
2018-05-11T15:54:28.933Z,9.83
2018-05-11T15:56:56.590Z,9.40
2018-05-11T15:59:24.263Z,10.13
2018-05-11T16:01:51.917Z,9.90
2018-05-11T16:04:19.587Z,10.00
2018-05-11T16:06:47.246Z,10.23
2018-05-11T16:09:14.916Z,9.10
2018-05-11T16:11:42.552Z,8.63
2018-05-11T16:14:10.242Z,8.90
2018-05-11T16:16:38.307Z,9.20
2018-05-11T16:19:05.971Z,8.70
2018-05-11T16:21:33.625Z,9.20
2018-05-11T16:24:01.311Z,18.27
2018-05-11T16:26:29.738Z,17.23
2018-05-11T16:28:57.423Z,7.73
2018-05-11T16:31:25.087Z,10.47
2018-05-11T16:33:52.766Z,7.87
2018-05-11T16:36:20.418Z,8.77
2018-05-11T16:38:48.104Z,8.97
2018-05-11T16:41:16.531Z,12.93
2018-05-11T16:43:44.222Z,11.27
2018-05-11T16:46:11.888Z,13.50
2018-05-11T16:48:40.875Z,9.10
2018-05-11T16:51:09.355Z,7.70
2018-05-11T16:53:36.879Z,8.03
2018-05-11T16:56:04.528Z,9.37
2018-05-11T16:58:32.211Z,9.50
2018-05-11T17:00:59.870Z,9.80
2018-05-11T17:03:27.558Z,13.43
2018-05-11T17:05:55.231Z,11.10
2018-05-11T17:08:23.662Z,11.47
2018-05-11T17:10:51.353Z,9.33
2018-05-11T17:13:19.023Z,10.17
2018-05-11T17:15:46.709Z,13.23
2018-05-11T17:18:15.140Z,14.23
2018-05-11T17:20:42.820Z,10.73
2018-05-11T17:23:10.496Z,10.70
2018-05-11T17:25:39.272Z,10.37
2018-05-11T17:28:08.757Z,10.17
2018-05-11T17:30:36.442Z,13.97
2018-05-11T17:33:04.115Z,11.30
2018-05-11T17:35:32.568Z,8.93
2018-05-11T17:38:00.224Z,9.60
2018-05-11T17:40:27.914Z,10.83
2018-05-11T17:42:55.593Z,9.03
2018-05-11T17:45:23.294Z,9.40
2018-05-11T17:47:50.962Z,13.20
2018-05-11T17:50:18.648Z,11.03
2018-05-11T17:52:46.319Z,12.63
2018-05-11T17:55:14.002Z,13.33
2018-05-11T17:57:42.424Z,11.43
2018-05-11T18:00:10.870Z,10.17
2018-05-11T18:02:40.028Z,13.20
2018-05-11T18:05:08.389Z,11.30
2018-05-11T18:07:36.038Z,12.03
2018-05-11T18:10:03.736Z,11.03
2018-05-11T18:12:31.419Z,14.93
2018-05-11T18:14:59.868Z,13.20
2018-05-11T18:17:27.512Z,10.47
2018-05-11T18:19:55.211Z,12.33
2018-05-11T18:22:23.665Z,14.10
2018-05-11T18:24:51.363Z,21.00
2018-05-11T18:27:19.805Z,11.57
2018-05-11T18:29:47.468Z,13.47
2018-05-11T18:32:15.153Z,19.10
2018-05-11T18:34:42.802Z,31.37
2018-05-11T18:37:10.485Z,18.60
2018-05-11T18:39:38.953Z,23.97
2018-05-11T18:42:06.633Z,22.50
2018-05-11T18:44:35.062Z,28.33
2018-05-11T18:47:02.824Z,26.13
2018-05-11T18:49:30.453Z,20.27
2018-05-11T18:51:58.328Z,40.90
2018-05-11T18:54:26.525Z,31.83
2018-05-11T18:56:53.714Z,86.60
2018-05-11T18:59:22.148Z,43.43
2018-05-11T19:01:49.888Z,55.63
2018-05-11T19:04:17.534Z,35.40
2018-05-11T19:06:45.271Z,24.53
2018-05-11T19:09:12.943Z,21.53
2018-05-11T19:11:41.396Z,16.77
2018-05-11T19:14:09.065Z,17.00
2018-05-11T19:16:36.750Z,20.10
2018-05-11T19:19:04.421Z,18.47
2018-05-11T19:21:32.879Z,34.53
2018-05-11T19:24:00.535Z,18.27
2018-05-11T19:26:29.017Z,26.03
2018-05-11T19:28:56.686Z,17.40
2018-05-11T19:31:24.381Z,13.37
2018-05-11T19:33:52.034Z,13.13
2018-05-11T19:36:19.726Z,13.87
2018-05-11T19:38:47.387Z,13.60
2018-05-11T19:41:15.055Z,12.97
2018-05-11T19:43:42.709Z,14.07
2018-05-11T19:46:10.352Z,17.57
2018-05-11T19:48:39.293Z,26.27
2018-05-11T19:51:09.217Z,37.47
2018-05-11T19:53:36.943Z,16.23
2018-05-11T19:59:17.522Z,17.73
2018-05-11T20:05:42.873Z,22.33
2018-05-11T20:08:11.405Z,21.00
2018-05-11T20:10:40.037Z,18.33
2018-05-11T20:13:08.414Z,15.23
2018-05-11T20:15:36.074Z,16.00
2018-05-11T20:18:03.778Z,14.10
2018-05-11T20:20:32.879Z,13.57
2018-05-11T20:23:00.635Z,14.87
2018-05-11T20:25:29.077Z,15.97
2018-05-11T20:27:56.760Z,15.30
2018-05-11T20:30:24.426Z,13.53
2018-05-11T20:32:52.222Z,13.40
2018-05-11T20:35:19.888Z,12.23
2018-05-11T20:37:47.561Z,11.80
2018-05-11T20:40:15.225Z,10.43
2018-05-11T20:42:42.910Z,10.33
2018-05-11T20:45:10.991Z,10.63
2018-05-11T20:47:39.601Z,11.00
2018-05-11T20:50:10.078Z,10.97
2018-05-11T20:52:38.371Z,9.27
2018-05-11T20:55:06.018Z,14.70
2018-05-11T20:57:33.730Z,12.03
2018-05-11T21:00:02.166Z,17.20
2018-05-11T21:02:29.844Z,15.83
2018-05-11T21:04:57.591Z,14.80
2018-05-11T21:07:25.227Z,14.40
2018-05-11T21:09:52.896Z,15.53
2018-05-11T21:12:20.553Z,14.77
2018-05-11T21:14:48.336Z,14.93
2018-05-11T21:17:15.910Z,15.77
2018-05-11T21:19:43.588Z,13.90
2018-05-11T21:22:11.253Z,15.57
2018-05-11T21:24:38.936Z,13.33
2018-05-11T21:27:07.439Z,14.83
2018-05-11T21:29:35.066Z,14.50
2018-05-11T21:32:03.498Z,14.90
2018-05-11T21:34:31.193Z,15.30
2018-05-11T21:36:58.862Z,15.53
2018-05-11T21:39:26.555Z,14.43
2018-05-11T21:41:54.218Z,15.30
2018-05-11T21:44:21.908Z,14.40
2018-05-11T21:46:49.565Z,14.00
2018-05-11T21:49:17.267Z,16.50
2018-05-11T21:51:44.925Z,17.17
2018-05-11T21:54:12.606Z,15.47
2018-05-11T21:56:41.044Z,14.90
2018-05-11T21:59:09.265Z,16.00
2018-05-11T22:01:37.885Z,16.33
2018-05-11T22:04:05.565Z,13.23
2018-05-11T22:06:33.234Z,16.07
2018-05-11T22:09:00.910Z,13.30
2018-05-11T22:11:28.571Z,14.90
2018-05-11T22:13:56.254Z,15.03
2018-05-11T22:16:24.705Z,13.03
2018-05-11T22:18:52.382Z,10.83
2018-05-11T22:21:20.828Z,9.20
2018-05-11T22:23:48.490Z,10.03
2018-05-11T22:26:16.187Z,11.17
2018-05-11T22:28:44.614Z,11.10
2018-05-11T22:31:12.296Z,9.27
2018-05-11T22:33:39.972Z,9.60
2018-05-11T22:36:08.330Z,8.47
2018-05-11T22:38:35.971Z,8.23
2018-05-11T22:41:03.654Z,8.93
2018-05-11T22:43:31.312Z,8.93
2018-05-11T22:45:58.997Z,8.20
2018-05-11T22:48:26.650Z,7.90
2018-05-11T22:50:54.401Z,8.53
2018-05-11T22:53:22.064Z,8.60
2018-05-11T22:55:49.758Z,8.90
2018-05-11T22:58:18.172Z,9.80
2018-05-11T23:00:45.862Z,10.50
2018-05-11T23:03:13.532Z,10.27
2018-05-11T23:05:41.221Z,10.03
2018-05-11T23:08:10.931Z,9.47
2018-05-11T23:10:40.606Z,11.80
2018-05-11T23:13:09.412Z,12.97
2018-05-11T23:15:37.109Z,12.50
2018-05-11T23:18:04.772Z,11.53
2018-05-11T23:20:32.458Z,11.77
2018-05-11T23:23:00.150Z,11.43
2018-05-11T23:25:27.826Z,13.60
2018-05-11T23:27:55.494Z,11.67
2018-05-11T23:30:23.950Z,10.93
2018-05-11T23:32:51.614Z,10.83
2018-05-11T23:35:19.281Z,11.43
2018-05-11T23:37:46.961Z,9.10
2018-05-11T23:40:15.400Z,9.07
2018-05-11T23:42:43.097Z,9.93
2018-05-11T23:45:10.774Z,9.40
2018-05-11T23:47:40.347Z,9.70
2018-05-11T23:50:09.006Z,9.83
2018-05-11T23:52:36.694Z,10.57
2018-05-11T23:55:04.350Z,11.80
2018-05-11T23:57:32.026Z,11.20
2018-05-11T23:59:59.702Z,11.60
